This is the latest recevied weather packets stored in our database for station/object AA7VG. If no packets are shown the sender has not sent any weather packets the latest 1 day(s).
| Time | Temp. | Humidity | Pressure | Rain* | Wind** | Luminosity | Snow |
|---|---|---|---|---|---|---|---|
| 1778010659 | 9.44° C | 34% | 1015.3 hPa | 0 mm | 2.24 m/s, 339° | - | - |
| 1778010356 | 10° C | 33% | 1015.5 hPa | 0 mm | 3.13 m/s, 299° | - | - |
| 1778010052 | 9.44° C | 34% | 1015.4 hPa | 0 mm | 2.24 m/s, 15° | - | - |
| 1778009749 | 10.56° C | 34% | 1015.4 hPa | 0 mm | 3.13 m/s, 60° | - | - |
| 1778009446 | 10.56° C | 31% | 1015.2 hPa | 0 mm | 2.68 m/s, 323° | - | - |
| 1778009145 | 11.11° C | 30% | 1015.3 hPa | 0 mm | 3.13 m/s, 312° | - | - |
| 1778008842 | 11.11° C | 31% | 1015.3 hPa | 0 mm | 2.68 m/s, 342° | - | - |
| 1778008540 | 11.11° C | 31% | 1015.3 hPa | 0 mm | 1.79 m/s, 351° | - | - |
| 1778008238 | 10° C | 33% | 1015.4 hPa | 0 mm | 1.79 m/s, 302° | - | - |
| 1778007938 | 9.44° C | 35% | 1015.4 hPa | 0 mm | 0.89 m/s, 306° | - | - |
| 1778007634 | 10° C | 33% | 1015.6 hPa | 0 mm | 3.58 m/s, 312° | - | - |
| 1778007331 | 9.44° C | 33% | 1015.5 hPa | 0 mm | 0.45 m/s, 41° | - | - |
| 1778007027 | 9.44° C | 32% | 1015.5 hPa | 0 mm | 1.34 m/s, 22° | - | - |
| 1778006724 | 10° C | 31% | 1015.6 hPa | 0 mm | 2.68 m/s, 355° | - | - |
| 1778006421 | 9.44° C | 33% | 1015.8 hPa | 0 mm | 1.34 m/s, 10° | - | - |
| 1778006118 | 9.44° C | 33% | 1015.6 hPa | 0 mm | 2.24 m/s, 15° | - | - |
| 1778005815 | 9.44° C | 33% | 1015.8 hPa | 0 mm | 1.34 m/s, 336° | - | - |
| 1778005512 | 9.44° C | 33% | 1015.5 hPa | 0 mm | 2.68 m/s, 336° | - | - |
| 1778005208 | 9.44° C | 32% | 1015.4 hPa | 0 mm | 0.89 m/s, 351° | - | - |
| 1778004905 | 9.44° C | 37% | 1015.5 hPa | 0 mm | 1.34 m/s, 76° | - | - |
| 1778004602 | 8.89° C | 37% | 1015.8 hPa | 0 mm | 0 m/s | - | - |
| 1778004298 | 7.78° C | 39% | 1015.8 hPa | 0 mm | 0.89 m/s, 96° | - | - |
| 1778003995 | 7.78° C | 40% | 1015.8 hPa | 0 mm | 0.89 m/s, 158° | - | - |
| 1778003691 | 8.89° C | 37% | 1015.6 hPa | 0 mm | 0.45 m/s, 102° | - | - |
| 1778003388 | 8.89° C | 37% | 1015.4 hPa | 0 mm | 1.34 m/s, 339° | - | - |
* Rain latest hour (hover to see other rain measurements)
** Current wind speed in m/s (hover to see current wind gust speed)